sensor_id;sensor_type;location;lat;lon;timestamp;temperature;humidity
8172;DHT22;4127;47.908;10.850;2024-02-28T00:02:04;3.70;99.90
8172;DHT22;4127;47.908;10.850;2024-02-28T00:04:31;3.70;99.90
8172;DHT22;4127;47.908;10.850;2024-02-28T00:06:58;3.70;99.90
8172;DHT22;4127;47.908;10.850;2024-02-28T00:09:25;3.70;99.90
8172;DHT22;4127;47.908;10.850;2024-02-28T00:11:52;3.70;99.90
8172;DHT22;4127;47.908;10.850;2024-02-28T00:14:19;3.70;99.90
8172;DHT22;4127;47.908;10.850;2024-02-28T00:16:47;3.70;99.90
8172;DHT22;4127;47.908;10.850;2024-02-28T00:19:15;3.70;99.90
8172;DHT22;4127;47.908;10.850;2024-02-28T00:21:43;3.80;99.90
8172;DHT22;4127;47.908;10.850;2024-02-28T00:24:11;3.80;99.90
8172;DHT22;4127;47.908;10.850;2024-02-28T00:26:42;3.80;99.90
8172;DHT22;4127;47.908;10.850;2024-02-28T00:29:10;3.80;99.90
8172;DHT22;4127;47.908;10.850;2024-02-28T00:31:36;3.90;99.90
8172;DHT22;4127;47.908;10.850;2024-02-28T00:34:03;3.90;99.90
8172;DHT22;4127;47.908;10.850;2024-02-28T00:36:31;4.00;99.90
8172;DHT22;4127;47.908;10.850;2024-02-28T00:39:14;4.00;99.90
8172;DHT22;4127;47.908;10.850;2024-02-28T00:41:41;4.00;99.90
8172;DHT22;4127;47.908;10.850;2024-02-28T00:44:08;4.00;99.90
8172;DHT22;4127;47.908;10.850;2024-02-28T00:46:35;4.10;99.90
8172;DHT22;4127;47.908;10.850;2024-02-28T00:49:02;4.10;99.90
8172;DHT22;4127;47.908;10.850;2024-02-28T00:51:29;4.10;99.90
8172;DHT22;4127;47.908;10.850;2024-02-28T00:53:56;4.00;99.90
8172;DHT22;4127;47.908;10.850;2024-02-28T00:56:23;4.10;99.90
8172;DHT22;4127;47.908;10.850;2024-02-28T00:58:51;4.10;99.90
8172;DHT22;4127;47.908;10.850;2024-02-28T01:01:18;4.10;99.90
8172;DHT22;4127;47.908;10.850;2024-02-28T01:03:45;4.20;99.90
8172;DHT22;4127;47.908;10.850;2024-02-28T01:06:12;4.20;99.90
8172;DHT22;4127;47.908;10.850;2024-02-28T01:08:38;4.20;99.90
8172;DHT22;4127;47.908;10.850;2024-02-28T01:11:06;4.30;99.90
8172;DHT22;4127;47.908;10.850;2024-02-28T01:13:33;4.30;99.90
8172;DHT22;4127;47.908;10.850;2024-02-28T01:15:59;4.30;99.90
8172;DHT22;4127;47.908;10.850;2024-02-28T01:18:26;4.30;99.90
8172;DHT22;4127;47.908;10.850;2024-02-28T01:20:57;4.40;99.90
8172;DHT22;4127;47.908;10.850;2024-02-28T01:23:24;4.40;99.90
8172;DHT22;4127;47.908;10.850;2024-02-28T01:25:51;4.40;99.90
8172;DHT22;4127;47.908;10.850;2024-02-28T01:28:18;4.40;99.90
8172;DHT22;4127;47.908;10.850;2024-02-28T01:30:45;4.40;99.90
8172;DHT22;4127;47.908;10.850;2024-02-28T01:33:12;4.40;99.90
8172;DHT22;4127;47.908;10.850;2024-02-28T01:35:40;4.40;99.90
8172;DHT22;4127;47.908;10.850;2024-02-28T01:38:07;4.50;99.90
8172;DHT22;4127;47.908;10.850;2024-02-28T01:40:34;4.50;99.90
8172;DHT22;4127;47.908;10.850;2024-02-28T01:43:07;4.40;99.90
8172;DHT22;4127;47.908;10.850;2024-02-28T01:45:34;4.40;99.90
8172;DHT22;4127;47.908;10.850;2024-02-28T01:48:03;4.40;99.90
8172;DHT22;4127;47.908;10.850;2024-02-28T01:50:32;4.50;99.90
8172;DHT22;4127;47.908;10.850;2024-02-28T01:53:00;4.40;99.90
8172;DHT22;4127;47.908;10.850;2024-02-28T01:55:28;4.50;99.90
8172;DHT22;4127;47.908;10.850;2024-02-28T01:57:55;4.50;99.90
8172;DHT22;4127;47.908;10.850;2024-02-28T02:00:22;4.50;99.90
8172;DHT22;4127;47.908;10.850;2024-02-28T02:02:51;4.60;99.90
8172;DHT22;4127;47.908;10.850;2024-02-28T02:05:18;4.70;99.90
8172;DHT22;4127;47.908;10.850;2024-02-28T02:07:50;4.70;99.90
8172;DHT22;4127;47.908;10.850;2024-02-28T02:10:18;4.80;99.90
8172;DHT22;4127;47.908;10.850;2024-02-28T02:12:44;4.90;99.90
8172;DHT22;4127;47.908;10.850;2024-02-28T02:15:11;4.90;99.90
8172;DHT22;4127;47.908;10.850;2024-02-28T02:17:38;4.90;99.90
8172;DHT22;4127;47.908;10.850;2024-02-28T02:20:06;4.90;99.90
8172;DHT22;4127;47.908;10.850;2024-02-28T02:22:39;4.90;99.90
8172;DHT22;4127;47.908;10.850;2024-02-28T02:25:06;4.90;99.90
8172;DHT22;4127;47.908;10.850;2024-02-28T02:27:33;4.90;99.90
8172;DHT22;4127;47.908;10.850;2024-02-28T02:30:00;5.00;99.90
8172;DHT22;4127;47.908;10.850;2024-02-28T02:32:27;5.00;99.90
8172;DHT22;4127;47.908;10.850;2024-02-28T02:34:55;5.10;99.90
8172;DHT22;4127;47.908;10.850;2024-02-28T02:37:22;5.10;99.90
8172;DHT22;4127;47.908;10.850;2024-02-28T02:39:50;5.10;99.90
8172;DHT22;4127;47.908;10.850;2024-02-28T02:42:18;5.10;99.90
8172;DHT22;4127;47.908;10.850;2024-02-28T02:44:45;5.10;99.90
8172;DHT22;4127;47.908;10.850;2024-02-28T02:47:12;5.10;99.90
8172;DHT22;4127;47.908;10.850;2024-02-28T02:49:39;5.20;99.90
8172;DHT22;4127;47.908;10.850;2024-02-28T02:52:06;5.20;99.90
8172;DHT22;4127;47.908;10.850;2024-02-28T02:54:33;5.20;99.90
8172;DHT22;4127;47.908;10.850;2024-02-28T02:57:00;5.20;99.90
8172;DHT22;4127;47.908;10.850;2024-02-28T02:59:26;5.10;99.90
8172;DHT22;4127;47.908;10.850;2024-02-28T03:01:53;5.00;99.90
8172;DHT22;4127;47.908;10.850;2024-02-28T03:04:20;5.00;99.90
8172;DHT22;4127;47.908;10.850;2024-02-28T03:06:47;5.00;99.90
8172;DHT22;4127;47.908;10.850;2024-02-28T03:09:14;5.00;99.90
8172;DHT22;4127;47.908;10.850;2024-02-28T03:11:41;4.90;99.90
8172;DHT22;4127;47.908;10.850;2024-02-28T03:14:08;4.90;99.90
8172;DHT22;4127;47.908;10.850;2024-02-28T03:16:35;5.00;99.90
8172;DHT22;4127;47.908;10.850;2024-02-28T03:19:04;5.00;99.90
8172;DHT22;4127;47.908;10.850;2024-02-28T03:21:31;5.00;99.90
8172;DHT22;4127;47.908;10.850;2024-02-28T03:23:59;5.10;99.90
8172;DHT22;4127;47.908;10.850;2024-02-28T03:26:25;5.10;99.90
8172;DHT22;4127;47.908;10.850;2024-02-28T03:28:52;5.20;99.90
8172;DHT22;4127;47.908;10.850;2024-02-28T03:31:19;5.20;99.90
8172;DHT22;4127;47.908;10.850;2024-02-28T03:33:46;5.20;99.90
8172;DHT22;4127;47.908;10.850;2024-02-28T03:36:13;5.30;99.90
8172;DHT22;4127;47.908;10.850;2024-02-28T03:38:40;5.30;99.90
8172;DHT22;4127;47.908;10.850;2024-02-28T03:41:07;5.30;99.90
8172;DHT22;4127;47.908;10.850;2024-02-28T03:43:34;5.30;99.90
8172;DHT22;4127;47.908;10.850;2024-02-28T03:46:01;5.30;99.90
8172;DHT22;4127;47.908;10.850;2024-02-28T03:48:28;5.20;99.90
8172;DHT22;4127;47.908;10.850;2024-02-28T03:50:55;5.20;99.90
8172;DHT22;4127;47.908;10.850;2024-02-28T03:53:22;5.10;99.90
8172;DHT22;4127;47.908;10.850;2024-02-28T03:55:50;5.10;99.90
8172;DHT22;4127;47.908;10.850;2024-02-28T03:58:17;5.10;99.90
8172;DHT22;4127;47.908;10.850;2024-02-28T04:00:44;5.10;99.90
8172;DHT22;4127;47.908;10.850;2024-02-28T04:03:13;5.20;99.90
8172;DHT22;4127;47.908;10.850;2024-02-28T04:05:41;5.10;99.90
8172;DHT22;4127;47.908;10.850;2024-02-28T04:08:08;5.00;99.90
8172;DHT22;4127;47.908;10.850;2024-02-28T04:10:35;5.00;99.90
8172;DHT22;4127;47.908;10.850;2024-02-28T04:13:02;4.90;99.90
8172;DHT22;4127;47.908;10.850;2024-02-28T04:15:30;4.90;99.90
8172;DHT22;4127;47.908;10.850;2024-02-28T04:17:58;4.90;99.90
8172;DHT22;4127;47.908;10.850;2024-02-28T04:20:25;4.80;99.90
8172;DHT22;4127;47.908;10.850;2024-02-28T04:22:52;4.80;99.90
8172;DHT22;4127;47.908;10.850;2024-02-28T04:25:19;4.80;99.90
8172;DHT22;4127;47.908;10.850;2024-02-28T04:27:46;4.80;99.90
8172;DHT22;4127;47.908;10.850;2024-02-28T04:30:14;4.80;99.90
8172;DHT22;4127;47.908;10.850;2024-02-28T04:32:41;4.70;99.90
8172;DHT22;4127;47.908;10.850;2024-02-28T04:35:08;4.80;99.90
8172;DHT22;4127;47.908;10.850;2024-02-28T04:37:35;4.80;99.90
8172;DHT22;4127;47.908;10.850;2024-02-28T04:40:03;4.80;99.90
8172;DHT22;4127;47.908;10.850;2024-02-28T04:42:31;4.80;99.90
8172;DHT22;4127;47.908;10.850;2024-02-28T04:44:58;4.80;99.90
8172;DHT22;4127;47.908;10.850;2024-02-28T04:47:25;4.80;99.90
8172;DHT22;4127;47.908;10.850;2024-02-28T04:50:05;4.80;99.90
8172;DHT22;4127;47.908;10.850;2024-02-28T04:52:33;4.80;99.90
8172;DHT22;4127;47.908;10.850;2024-02-28T04:55:00;4.70;99.90
8172;DHT22;4127;47.908;10.850;2024-02-28T04:57:27;4.60;99.90
8172;DHT22;4127;47.908;10.850;2024-02-28T04:59:54;4.70;99.90
8172;DHT22;4127;47.908;10.850;2024-02-28T05:02:21;4.70;99.90
8172;DHT22;4127;47.908;10.850;2024-02-28T05:04:48;4.70;99.90
8172;DHT22;4127;47.908;10.850;2024-02-28T05:07:15;4.70;99.90
8172;DHT22;4127;47.908;10.850;2024-02-28T05:09:42;4.80;99.90
8172;DHT22;4127;47.908;10.850;2024-02-28T05:12:09;4.80;99.90
8172;DHT22;4127;47.908;10.850;2024-02-28T05:14:38;4.80;99.90
8172;DHT22;4127;47.908;10.850;2024-02-28T05:17:05;4.90;99.90
8172;DHT22;4127;47.908;10.850;2024-02-28T05:19:32;4.80;99.90
8172;DHT22;4127;47.908;10.850;2024-02-28T05:21:59;4.80;99.90
8172;DHT22;4127;47.908;10.850;2024-02-28T05:24:28;4.80;99.90
8172;DHT22;4127;47.908;10.850;2024-02-28T05:26:55;4.80;99.90
8172;DHT22;4127;47.908;10.850;2024-02-28T05:29:21;4.90;99.90
8172;DHT22;4127;47.908;10.850;2024-02-28T05:31:48;4.80;99.90
8172;DHT22;4127;47.908;10.850;2024-02-28T05:34:15;4.80;99.90
8172;DHT22;4127;47.908;10.850;2024-02-28T05:36:43;4.70;99.90
8172;DHT22;4127;47.908;10.850;2024-02-28T05:39:10;4.70;99.90
8172;DHT22;4127;47.908;10.850;2024-02-28T05:41:37;4.70;99.90
8172;DHT22;4127;47.908;10.850;2024-02-28T05:44:04;4.80;99.90
8172;DHT22;4127;47.908;10.850;2024-02-28T05:46:31;4.70;99.90
8172;DHT22;4127;47.908;10.850;2024-02-28T05:48:58;4.70;99.90
8172;DHT22;4127;47.908;10.850;2024-02-28T05:51:26;4.80;99.90
8172;DHT22;4127;47.908;10.850;2024-02-28T05:53:53;4.70;99.90
8172;DHT22;4127;47.908;10.850;2024-02-28T05:56:19;4.80;99.90
8172;DHT22;4127;47.908;10.850;2024-02-28T05:58:48;4.70;99.90
8172;DHT22;4127;47.908;10.850;2024-02-28T06:01:15;4.70;99.90
8172;DHT22;4127;47.908;10.850;2024-02-28T06:03:50;4.70;99.90
8172;DHT22;4127;47.908;10.850;2024-02-28T06:06:17;4.70;99.90
8172;DHT22;4127;47.908;10.850;2024-02-28T06:08:45;4.70;99.90
8172;DHT22;4127;47.908;10.850;2024-02-28T06:11:11;4.70;99.90
8172;DHT22;4127;47.908;10.850;2024-02-28T06:13:40;4.70;99.90
8172;DHT22;4127;47.908;10.850;2024-02-28T06:16:07;4.60;99.90
8172;DHT22;4127;47.908;10.850;2024-02-28T06:18:34;4.60;99.90
8172;DHT22;4127;47.908;10.850;2024-02-28T06:21:01;4.60;99.90
8172;DHT22;4127;47.908;10.850;2024-02-28T06:23:29;4.60;99.90
8172;DHT22;4127;47.908;10.850;2024-02-28T06:25:56;4.60;99.90
8172;DHT22;4127;47.908;10.850;2024-02-28T06:28:24;4.60;99.90
8172;DHT22;4127;47.908;10.850;2024-02-28T06:30:52;4.60;99.90
8172;DHT22;4127;47.908;10.850;2024-02-28T06:33:19;4.70;99.90
8172;DHT22;4127;47.908;10.850;2024-02-28T06:35:46;4.70;99.90
8172;DHT22;4127;47.908;10.850;2024-02-28T06:38:13;4.80;99.90
8172;DHT22;4127;47.908;10.850;2024-02-28T06:40:40;4.70;99.90
8172;DHT22;4127;47.908;10.850;2024-02-28T06:43:08;4.70;99.90
8172;DHT22;4127;47.908;10.850;2024-02-28T06:45:35;4.60;99.90
8172;DHT22;4127;47.908;10.850;2024-02-28T06:48:04;4.70;99.90
8172;DHT22;4127;47.908;10.850;2024-02-28T06:50:31;4.70;99.90
8172;DHT22;4127;47.908;10.850;2024-02-28T06:52:59;4.70;99.90
8172;DHT22;4127;47.908;10.850;2024-02-28T06:55:25;4.70;99.90
8172;DHT22;4127;47.908;10.850;2024-02-28T06:57:52;4.70;99.90
8172;DHT22;4127;47.908;10.850;2024-02-28T07:00:21;4.70;99.90
8172;DHT22;4127;47.908;10.850;2024-02-28T07:02:49;4.80;99.90
8172;DHT22;4127;47.908;10.850;2024-02-28T07:05:15;4.80;99.90
8172;DHT22;4127;47.908;10.850;2024-02-28T07:07:43;4.70;99.90
8172;DHT22;4127;47.908;10.850;2024-02-28T07:10:10;4.70;99.90
8172;DHT22;4127;47.908;10.850;2024-02-28T07:12:37;4.70;99.90
8172;DHT22;4127;47.908;10.850;2024-02-28T07:15:04;4.80;99.90
8172;DHT22;4127;47.908;10.850;2024-02-28T07:17:31;4.80;99.90
8172;DHT22;4127;47.908;10.850;2024-02-28T07:19:58;4.70;99.90
8172;DHT22;4127;47.908;10.850;2024-02-28T07:22:25;4.70;99.90
8172;DHT22;4127;47.908;10.850;2024-02-28T07:24:52;4.70;99.90
8172;DHT22;4127;47.908;10.850;2024-02-28T07:27:22;4.70;99.90
8172;DHT22;4127;47.908;10.850;2024-02-28T07:29:50;4.70;99.90
8172;DHT22;4127;47.908;10.850;2024-02-28T07:32:17;4.70;99.90
8172;DHT22;4127;47.908;10.850;2024-02-28T07:34:43;4.80;99.90
8172;DHT22;4127;47.908;10.850;2024-02-28T07:37:10;4.90;99.90
8172;DHT22;4127;47.908;10.850;2024-02-28T07:39:38;5.00;99.90
8172;DHT22;4127;47.908;10.850;2024-02-28T07:42:06;5.00;99.90
8172;DHT22;4127;47.908;10.850;2024-02-28T07:44:33;5.00;99.90
8172;DHT22;4127;47.908;10.850;2024-02-28T07:47:00;5.00;99.90
8172;DHT22;4127;47.908;10.850;2024-02-28T07:49:27;5.00;99.90
8172;DHT22;4127;47.908;10.850;2024-02-28T07:51:54;4.90;99.90
8172;DHT22;4127;47.908;10.850;2024-02-28T07:54:22;4.90;99.90
8172;DHT22;4127;47.908;10.850;2024-02-28T07:56:49;4.90;99.90
8172;DHT22;4127;47.908;10.850;2024-02-28T07:59:16;5.00;99.90
8172;DHT22;4127;47.908;10.850;2024-02-28T08:01:45;5.00;99.90
8172;DHT22;4127;47.908;10.850;2024-02-28T08:04:13;4.90;99.90
8172;DHT22;4127;47.908;10.850;2024-02-28T08:06:40;4.90;99.90
8172;DHT22;4127;47.908;10.850;2024-02-28T08:09:08;4.90;99.90
8172;DHT22;4127;47.908;10.850;2024-02-28T08:11:39;4.90;99.90
8172;DHT22;4127;47.908;10.850;2024-02-28T08:14:06;4.90;99.90
8172;DHT22;4127;47.908;10.850;2024-02-28T08:16:34;4.90;99.90
8172;DHT22;4127;47.908;10.850;2024-02-28T08:19:01;5.00;99.90
8172;DHT22;4127;47.908;10.850;2024-02-28T08:21:28;5.00;99.90
8172;DHT22;4127;47.908;10.850;2024-02-28T08:23:56;5.10;99.90
8172;DHT22;4127;47.908;10.850;2024-02-28T08:26:24;5.00;99.90
8172;DHT22;4127;47.908;10.850;2024-02-28T08:28:52;4.90;99.90
8172;DHT22;4127;47.908;10.850;2024-02-28T08:31:18;4.90;99.90
8172;DHT22;4127;47.908;10.850;2024-02-28T08:33:45;5.00;99.90
8172;DHT22;4127;47.908;10.850;2024-02-28T08:36:12;5.00;99.90
8172;DHT22;4127;47.908;10.850;2024-02-28T08:38:39;4.90;99.90
8172;DHT22;4127;47.908;10.850;2024-02-28T08:41:07;4.90;99.90
8172;DHT22;4127;47.908;10.850;2024-02-28T08:43:43;4.90;99.90
8172;DHT22;4127;47.908;10.850;2024-02-28T08:46:14;5.00;99.90
8172;DHT22;4127;47.908;10.850;2024-02-28T08:48:42;5.00;99.90
8172;DHT22;4127;47.908;10.850;2024-02-28T08:51:09;5.00;99.90
8172;DHT22;4127;47.908;10.850;2024-02-28T08:53:36;4.90;99.90
8172;DHT22;4127;47.908;10.850;2024-02-28T08:56:03;4.90;99.90
8172;DHT22;4127;47.908;10.850;2024-02-28T08:58:31;4.90;99.90
8172;DHT22;4127;47.908;10.850;2024-02-28T09:00:57;5.00;99.90
8172;DHT22;4127;47.908;10.850;2024-02-28T09:03:25;4.90;99.90
8172;DHT22;4127;47.908;10.850;2024-02-28T09:05:52;5.00;99.90
8172;DHT22;4127;47.908;10.850;2024-02-28T09:08:19;5.00;99.90
8172;DHT22;4127;47.908;10.850;2024-02-28T09:10:46;5.00;99.90
8172;DHT22;4127;47.908;10.850;2024-02-28T09:13:14;5.10;99.90
8172;DHT22;4127;47.908;10.850;2024-02-28T09:15:41;5.10;99.90
8172;DHT22;4127;47.908;10.850;2024-02-28T09:18:08;5.10;99.90
8172;DHT22;4127;47.908;10.850;2024-02-28T09:20:36;5.20;99.90
8172;DHT22;4127;47.908;10.850;2024-02-28T09:23:02;5.20;99.90
8172;DHT22;4127;47.908;10.850;2024-02-28T09:25:29;5.20;99.90
8172;DHT22;4127;47.908;10.850;2024-02-28T09:27:59;5.30;99.90
8172;DHT22;4127;47.908;10.850;2024-02-28T09:30:27;5.20;99.90
8172;DHT22;4127;47.908;10.850;2024-02-28T09:33:08;5.30;99.90
8172;DHT22;4127;47.908;10.850;2024-02-28T09:35:36;5.40;99.90
8172;DHT22;4127;47.908;10.850;2024-02-28T09:38:03;5.50;99.90
8172;DHT22;4127;47.908;10.850;2024-02-28T09:40:31;5.50;99.90
8172;DHT22;4127;47.908;10.850;2024-02-28T09:43:01;5.60;99.90
8172;DHT22;4127;47.908;10.850;2024-02-28T09:45:32;5.60;99.90
8172;DHT22;4127;47.908;10.850;2024-02-28T09:48:00;5.60;99.90
8172;DHT22;4127;47.908;10.850;2024-02-28T09:50:27;5.70;99.90
8172;DHT22;4127;47.908;10.850;2024-02-28T09:52:54;5.70;99.90
8172;DHT22;4127;47.908;10.850;2024-02-28T09:55:35;5.70;99.90
8172;DHT22;4127;47.908;10.850;2024-02-28T09:58:03;5.50;99.90
8172;DHT22;4127;47.908;10.850;2024-02-28T10:00:31;5.50;99.90
8172;DHT22;4127;47.908;10.850;2024-02-28T10:03:00;5.50;99.90
8172;DHT22;4127;47.908;10.850;2024-02-28T10:05:27;5.60;99.90
8172;DHT22;4127;47.908;10.850;2024-02-28T10:07:55;5.60;99.90
8172;DHT22;4127;47.908;10.850;2024-02-28T10:10:22;5.60;99.90
8172;DHT22;4127;47.908;10.850;2024-02-28T10:12:50;5.70;99.90
8172;DHT22;4127;47.908;10.850;2024-02-28T10:15:17;5.70;99.90
8172;DHT22;4127;47.908;10.850;2024-02-28T10:17:44;5.70;99.90
8172;DHT22;4127;47.908;10.850;2024-02-28T10:20:12;5.80;99.90
8172;DHT22;4127;47.908;10.850;2024-02-28T10:22:39;5.90;99.90
8172;DHT22;4127;47.908;10.850;2024-02-28T10:25:06;6.00;99.90
8172;DHT22;4127;47.908;10.850;2024-02-28T10:27:34;6.00;99.90
8172;DHT22;4127;47.908;10.850;2024-02-28T10:30:02;6.00;99.90
8172;DHT22;4127;47.908;10.850;2024-02-28T10:32:32;5.90;99.90
8172;DHT22;4127;47.908;10.850;2024-02-28T10:35:04;5.90;99.90
8172;DHT22;4127;47.908;10.850;2024-02-28T10:37:37;6.00;99.90
8172;DHT22;4127;47.908;10.850;2024-02-28T10:40:06;6.00;99.90
8172;DHT22;4127;47.908;10.850;2024-02-28T10:42:33;6.20;99.90
8172;DHT22;4127;47.908;10.850;2024-02-28T10:45:01;6.30;99.90
8172;DHT22;4127;47.908;10.850;2024-02-28T10:47:47;6.30;99.90
8172;DHT22;4127;47.908;10.850;2024-02-28T10:50:17;6.30;99.90
8172;DHT22;4127;47.908;10.850;2024-02-28T10:52:44;6.20;99.90
8172;DHT22;4127;47.908;10.850;2024-02-28T10:55:21;6.20;99.90
8172;DHT22;4127;47.908;10.850;2024-02-28T10:58:02;6.20;99.90
8172;DHT22;4127;47.908;10.850;2024-02-28T11:00:30;6.10;99.90
8172;DHT22;4127;47.908;10.850;2024-02-28T11:02:59;6.10;99.90
8172;DHT22;4127;47.908;10.850;2024-02-28T11:05:40;6.10;99.90
8172;DHT22;4127;47.908;10.850;2024-02-28T11:08:11;6.10;99.90
8172;DHT22;4127;47.908;10.850;2024-02-28T11:10:41;6.20;99.90
8172;DHT22;4127;47.908;10.850;2024-02-28T11:13:24;6.20;99.90
8172;DHT22;4127;47.908;10.850;2024-02-28T11:15:51;6.30;99.90
8172;DHT22;4127;47.908;10.850;2024-02-28T11:18:19;6.50;99.90
8172;DHT22;4127;47.908;10.850;2024-02-28T11:20:46;6.70;99.90
8172;DHT22;4127;47.908;10.850;2024-02-28T11:23:14;6.90;99.90
8172;DHT22;4127;47.908;10.850;2024-02-28T11:25:43;6.90;99.90
8172;DHT22;4127;47.908;10.850;2024-02-28T11:28:10;6.70;99.90
8172;DHT22;4127;47.908;10.850;2024-02-28T11:30:37;6.60;99.90
8172;DHT22;4127;47.908;10.850;2024-02-28T11:33:04;6.40;99.90
8172;DHT22;4127;47.908;10.850;2024-02-28T11:35:32;6.30;99.90
8172;DHT22;4127;47.908;10.850;2024-02-28T11:37:59;6.30;99.90
8172;DHT22;4127;47.908;10.850;2024-02-28T11:40:27;6.10;99.90
8172;DHT22;4127;47.908;10.850;2024-02-28T11:42:54;5.90;99.90
8172;DHT22;4127;47.908;10.850;2024-02-28T11:45:21;5.80;99.90
8172;DHT22;4127;47.908;10.850;2024-02-28T11:47:49;5.80;99.90
8172;DHT22;4127;47.908;10.850;2024-02-28T11:50:16;5.70;99.90
8172;DHT22;4127;47.908;10.850;2024-02-28T11:52:45;5.60;99.90
8172;DHT22;4127;47.908;10.850;2024-02-28T11:55:12;5.70;99.90
8172;DHT22;4127;47.908;10.850;2024-02-28T11:57:39;5.80;99.90
8172;DHT22;4127;47.908;10.850;2024-02-28T12:00:08;5.70;99.90
8172;DHT22;4127;47.908;10.850;2024-02-28T12:02:36;5.60;99.90
8172;DHT22;4127;47.908;10.850;2024-02-28T12:05:03;5.50;99.90
8172;DHT22;4127;47.908;10.850;2024-02-28T12:07:32;5.50;99.90
8172;DHT22;4127;47.908;10.850;2024-02-28T12:10:00;5.50;99.90
8172;DHT22;4127;47.908;10.850;2024-02-28T12:12:30;5.50;99.90
8172;DHT22;4127;47.908;10.850;2024-02-28T12:15:01;5.70;99.90
8172;DHT22;4127;47.908;10.850;2024-02-28T12:17:32;5.50;99.90
8172;DHT22;4127;47.908;10.850;2024-02-28T12:19:59;5.50;99.90
8172;DHT22;4127;47.908;10.850;2024-02-28T12:22:27;5.50;99.90
8172;DHT22;4127;47.908;10.850;2024-02-28T12:24:55;5.80;99.90
8172;DHT22;4127;47.908;10.850;2024-02-28T12:27:22;5.70;99.90
8172;DHT22;4127;47.908;10.850;2024-02-28T12:29:49;5.70;99.90
8172;DHT22;4127;47.908;10.850;2024-02-28T12:32:16;5.80;99.90
8172;DHT22;4127;47.908;10.850;2024-02-28T12:34:44;5.80;99.90
8172;DHT22;4127;47.908;10.850;2024-02-28T12:37:11;5.70;99.90
8172;DHT22;4127;47.908;10.850;2024-02-28T12:39:38;5.80;99.90
8172;DHT22;4127;47.908;10.850;2024-02-28T12:42:06;5.90;99.90
8172;DHT22;4127;47.908;10.850;2024-02-28T12:44:34;5.90;99.90
8172;DHT22;4127;47.908;10.850;2024-02-28T12:47:01;5.90;99.90
8172;DHT22;4127;47.908;10.850;2024-02-28T12:49:28;5.80;99.90
8172;DHT22;4127;47.908;10.850;2024-02-28T12:51:55;5.80;99.90
8172;DHT22;4127;47.908;10.850;2024-02-28T12:54:22;5.80;99.90
8172;DHT22;4127;47.908;10.850;2024-02-28T12:56:50;5.80;99.90
8172;DHT22;4127;47.908;10.850;2024-02-28T12:59:17;5.90;99.90
8172;DHT22;4127;47.908;10.850;2024-02-28T13:01:44;5.90;99.90
8172;DHT22;4127;47.908;10.850;2024-02-28T13:04:11;5.80;99.90
8172;DHT22;4127;47.908;10.850;2024-02-28T13:06:38;5.70;99.90
8172;DHT22;4127;47.908;10.850;2024-02-28T13:09:06;5.70;99.90
8172;DHT22;4127;47.908;10.850;2024-02-28T13:11:39;5.60;99.90
8172;DHT22;4127;47.908;10.850;2024-02-28T13:14:06;5.60;99.90
8172;DHT22;4127;47.908;10.850;2024-02-28T13:16:35;5.70;99.90
8172;DHT22;4127;47.908;10.850;2024-02-28T13:19:02;5.80;99.90
8172;DHT22;4127;47.908;10.850;2024-02-28T13:21:29;5.90;99.90
8172;DHT22;4127;47.908;10.850;2024-02-28T13:23:56;5.80;99.90
8172;DHT22;4127;47.908;10.850;2024-02-28T13:26:23;5.80;99.90
8172;DHT22;4127;47.908;10.850;2024-02-28T13:28:50;5.70;99.90
8172;DHT22;4127;47.908;10.850;2024-02-28T13:31:20;5.70;99.90
8172;DHT22;4127;47.908;10.850;2024-02-28T13:33:47;5.70;99.90
8172;DHT22;4127;47.908;10.850;2024-02-28T13:36:15;5.80;99.90
8172;DHT22;4127;47.908;10.850;2024-02-28T13:38:42;5.80;99.90
8172;DHT22;4127;47.908;10.850;2024-02-28T13:41:11;5.70;99.90
8172;DHT22;4127;47.908;10.850;2024-02-28T13:43:37;5.60;99.90
8172;DHT22;4127;47.908;10.850;2024-02-28T13:46:04;5.50;99.90
8172;DHT22;4127;47.908;10.850;2024-02-28T13:48:32;5.50;99.90
8172;DHT22;4127;47.908;10.850;2024-02-28T13:51:00;5.60;99.90
8172;DHT22;4127;47.908;10.850;2024-02-28T13:53:28;5.60;99.90
8172;DHT22;4127;47.908;10.850;2024-02-28T13:55:55;5.60;99.90
8172;DHT22;4127;47.908;10.850;2024-02-28T13:58:22;5.50;99.90
8172;DHT22;4127;47.908;10.850;2024-02-28T14:00:49;5.50;99.90
8172;DHT22;4127;47.908;10.850;2024-02-28T14:03:16;5.40;99.90
8172;DHT22;4127;47.908;10.850;2024-02-28T14:05:44;5.40;99.90
8172;DHT22;4127;47.908;10.850;2024-02-28T14:08:11;5.50;99.90
8172;DHT22;4127;47.908;10.850;2024-02-28T14:10:40;5.50;99.90
8172;DHT22;4127;47.908;10.850;2024-02-28T14:13:07;5.50;99.90
8172;DHT22;4127;47.908;10.850;2024-02-28T14:15:33;5.50;99.90
8172;DHT22;4127;47.908;10.850;2024-02-28T14:18:03;5.50;99.90
8172;DHT22;4127;47.908;10.850;2024-02-28T14:20:30;5.50;99.90
8172;DHT22;4127;47.908;10.850;2024-02-28T14:22:58;5.40;99.90
8172;DHT22;4127;47.908;10.850;2024-02-28T14:25:25;5.40;99.90
8172;DHT22;4127;47.908;10.850;2024-02-28T14:27:52;5.30;99.90
8172;DHT22;4127;47.908;10.850;2024-02-28T14:30:20;5.40;99.90
8172;DHT22;4127;47.908;10.850;2024-02-28T14:32:47;5.40;99.90
8172;DHT22;4127;47.908;10.850;2024-02-28T14:35:15;5.40;99.90
8172;DHT22;4127;47.908;10.850;2024-02-28T14:37:42;5.30;99.90
8172;DHT22;4127;47.908;10.850;2024-02-28T14:40:11;5.30;99.90
8172;DHT22;4127;47.908;10.850;2024-02-28T14:42:42;5.30;99.90
8172;DHT22;4127;47.908;10.850;2024-02-28T14:45:11;5.20;99.90
8172;DHT22;4127;47.908;10.850;2024-02-28T14:47:38;5.20;99.90
8172;DHT22;4127;47.908;10.850;2024-02-28T14:50:07;5.10;99.90
8172;DHT22;4127;47.908;10.850;2024-02-28T14:52:38;5.20;99.90
8172;DHT22;4127;47.908;10.850;2024-02-28T14:55:10;5.10;99.90
8172;DHT22;4127;47.908;10.850;2024-02-28T14:57:38;5.00;99.90
8172;DHT22;4127;47.908;10.850;2024-02-28T15:00:07;5.00;99.90
8172;DHT22;4127;47.908;10.850;2024-02-28T15:02:41;5.00;99.90
8172;DHT22;4127;47.908;10.850;2024-02-28T15:05:08;5.00;99.90
8172;DHT22;4127;47.908;10.850;2024-02-28T15:07:36;5.00;99.90
8172;DHT22;4127;47.908;10.850;2024-02-28T15:10:03;5.10;99.90
8172;DHT22;4127;47.908;10.850;2024-02-28T15:12:34;5.30;99.90
8172;DHT22;4127;47.908;10.850;2024-02-28T15:15:04;5.40;99.90
8172;DHT22;4127;47.908;10.850;2024-02-28T15:17:32;5.40;99.90
8172;DHT22;4127;47.908;10.850;2024-02-28T15:20:00;5.30;99.90
8172;DHT22;4127;47.908;10.850;2024-02-28T15:22:31;5.30;99.90
8172;DHT22;4127;47.908;10.850;2024-02-28T15:25:00;5.20;99.90
8172;DHT22;4127;47.908;10.850;2024-02-28T15:27:27;5.20;99.90
8172;DHT22;4127;47.908;10.850;2024-02-28T15:29:54;5.40;99.90
8172;DHT22;4127;47.908;10.850;2024-02-28T15:32:21;5.50;99.90
8172;DHT22;4127;47.908;10.850;2024-02-28T15:34:48;5.50;99.90
8172;DHT22;4127;47.908;10.850;2024-02-28T15:37:15;5.50;99.90
8172;DHT22;4127;47.908;10.850;2024-02-28T15:39:42;5.40;99.90
8172;DHT22;4127;47.908;10.850;2024-02-28T15:42:11;5.30;99.90
8172;DHT22;4127;47.908;10.850;2024-02-28T15:44:39;5.30;99.90
8172;DHT22;4127;47.908;10.850;2024-02-28T15:47:08;5.40;99.90
8172;DHT22;4127;47.908;10.850;2024-02-28T15:49:36;5.40;99.90
8172;DHT22;4127;47.908;10.850;2024-02-28T15:52:10;5.40;99.90
8172;DHT22;4127;47.908;10.850;2024-02-28T15:54:37;5.40;99.90
8172;DHT22;4127;47.908;10.850;2024-02-28T15:57:08;5.30;99.90
8172;DHT22;4127;47.908;10.850;2024-02-28T15:59:36;5.30;99.90
8172;DHT22;4127;47.908;10.850;2024-02-28T16:02:06;5.40;99.90
8172;DHT22;4127;47.908;10.850;2024-02-28T16:04:35;5.40;99.90
8172;DHT22;4127;47.908;10.850;2024-02-28T16:07:02;5.40;99.90